Time;durP1;ratioP1;P1;durP2;ratioP2;P2;SDS_P1;SDS_P2;PMS_P1;PMS_P2;Temp;Humidity;BMP_temperature;BMP_pressure;BME280_temperature;BME280_humidity;BME280_pressure;Samples;Min_cycle;Max_cycle;Signal;HPM_P1;HPM_P2
2021/12/17 00:00:46;;;;;;;33.85;18.27;;;;;;;1.00;88.05;99472.63;5031372;28;20049;-58
2021/12/17 00:03:19;;;;;;;34.25;16.17;;;;;;;0.88;88.93;99463.88;5029963;28;20555;-56
2021/12/17 00:08:18;;;;;;;26.45;15.32;;;;;;;0.98;88.84;99470.09;5016797;28;20038;-56
2021/12/17 00:10:46;;;;;;;27.98;16.75;;;;;;;1.00;88.93;99470.78;5034097;28;20048;-58
2021/12/17 00:13:13;;;;;;;34.05;17.63;;;;;;;1.12;88.69;99474.19;5030339;28;20428;-58
2021/12/17 00:15:40;;;;;;;29.48;16.17;;;;;;;1.25;88.64;99465.06;5031627;28;20049;-58
2021/12/17 00:18:15;;;;;;;28.85;15.93;;;;;;;1.17;88.67;99477.28;5028781;28;20563;-56
2021/12/17 00:53:20;;;;;;;26.00;13.43;;;;;;;1.46;88.92;99450.72;5032033;28;20040;-55
2021/12/17 00:55:47;;;;;;;24.65;13.82;;;;;;;1.49;89.13;99445.94;5028578;28;20751;-56
2021/12/17 00:58:15;;;;;;;25.95;14.57;;;;;;;1.73;89.31;99446.47;5026504;28;21042;-58
2021/12/17 01:00:42;;;;;;;24.27;12.82;;;;;;;1.72;88.05;99448.31;5024438;28;20178;-59
2021/12/17 01:03:10;;;;;;;25.48;13.73;;;;;;;1.63;89.73;99451.84;5033873;28;20045;-58
2021/12/17 01:05:37;;;;;;;25.63;13.82;;;;;;;1.72;89.22;99448.31;5040044;28;20128;-58
2021/12/17 01:08:06;;;;;;;26.88;15.02;;;;;;;1.61;88.78;99446.63;5023262;28;20052;-58
2021/12/17 01:10:53;;;;;;;26.00;14.07;;;;;;;1.57;89.63;99445.22;5037861;28;20132;-59
2021/12/17 01:13:43;;;;;;;23.83;12.60;;;;;;;1.68;89.56;99441.56;5026477;28;20087;-58
2021/12/17 01:16:21;;;;;;;22.80;12.75;;;;;;;1.84;89.12;99424.09;5036625;28;20112;-59
2021/12/17 01:19:27;;;;;;;19.85;12.02;;;;;;;1.97;89.15;99419.28;5022563;28;20037;-59
2021/12/17 01:25:35;;;;;;;22.02;12.60;;;;;;;2.10;89.33;99418.13;5018117;28;20508;-58
2021/12/17 01:42:42;;;;;;;22.73;12.27;;;;;;;2.43;89.24;99431.91;5042620;28;20160;-54
2021/12/17 01:45:08;;;;;;;20.48;12.00;;;;;;;2.42;88.73;99432.88;5045540;28;20045;-57
2021/12/17 01:47:35;;;;;;;22.52;12.50;;;;;;;2.52;88.06;99440.88;5040649;28;20505;-58
2021/12/17 01:56:03;;;;;;;22.15;11.82;;;;;;;2.29;90.10;99435.91;5042209;28;20877;-57
2021/12/17 02:01:17;;;;;;;24.65;13.55;;;;;;;2.12;90.85;99442.84;5016983;28;20042;-58
2021/12/17 02:03:44;;;;;;;24.48;12.68;;;;;;;2.26;90.88;99433.53;5030584;28;20046;-59
2021/12/17 02:06:11;;;;;;;21.35;12.00;;;;;;;2.32;90.78;99439.13;5020622;28;20050;-58
2021/12/17 02:08:38;;;;;;;23.45;13.07;;;;;;;2.34;90.40;99431.81;5028406;28;20053;-58
2021/12/17 02:22:27;;;;;;;23.60;12.63;;;;;;;2.56;90.79;99419.03;5015453;28;20050;-57
2021/12/17 02:32:45;;;;;;;24.00;14.02;;;;;;;2.54;90.89;99415.66;5016993;28;20095;-57
2021/12/17 02:37:42;;;;;;;23.90;12.80;;;;;;;2.64;90.52;99402.22;5009998;28;20046;-59
2021/12/17 02:46:25;;;;;;;23.48;12.30;;;;;;;2.62;89.91;99393.53;5015190;28;20544;-59
2021/12/17 02:48:54;;;;;;;20.67;11.85;;;;;;;2.58;90.36;99386.81;5017369;28;20168;-58
2021/12/17 02:51:22;;;;;;;18.58;11.90;;;;;;;2.51;90.60;99389.19;5027232;28;20042;-59
2021/12/17 02:53:51;;;;;;;21.60;14.70;;;;;;;2.55;91.86;99379.06;5021796;28;20033;-58
2021/12/17 02:56:18;;;;;;;23.15;13.98;;;;;;;2.63;91.18;99370.28;5022404;28;20042;-59
2021/12/17 02:58:45;;;;;;;23.65;13.85;;;;;;;2.55;91.01;99373.72;5015654;28;20045;-59
2021/12/17 03:01:12;;;;;;;23.80;13.50;;;;;;;2.74;91.63;99378.09;5015046;28;20053;-58
2021/12/17 03:03:40;;;;;;;23.73;12.88;;;;;;;2.71;90.64;99371.22;5025387;28;20057;-56
2021/12/17 03:06:07;;;;;;;24.35;14.55;;;;;;;2.76;91.27;99383.31;5021753;28;20055;-57
2021/12/17 03:08:34;;;;;;;24.90;13.27;;;;;;;2.79;90.48;99373.13;5014448;28;20045;-59
2021/12/17 03:11:01;;;;;;;22.50;13.13;;;;;;;2.83;90.58;99371.84;5031715;28;20042;-58
2021/12/17 03:13:31;;;;;;;24.35;13.93;;;;;;;2.88;90.62;99370.53;5023920;28;20629;-57
2021/12/17 03:17:01;;;;;;;24.60;13.80;;;;;;;2.94;90.30;99381.47;5030433;28;20523;-56
2021/12/17 03:23:57;;;;;;;18.95;10.82;;;;;;;2.90;90.15;99369.38;5017242;28;20048;-56
2021/12/17 03:26:28;;;;;;;19.15;11.52;;;;;;;3.03;90.30;99366.34;5030323;28;20128;-57
2021/12/17 03:29:02;;;;;;;22.77;11.63;;;;;;;2.93;89.36;99373.59;5024073;28;20045;-54
2021/12/17 03:31:30;;;;;;;22.88;13.50;;;;;;;2.65;91.12;99374.50;5022961;28;20045;-55
2021/12/17 03:34:16;;;;;;;28.63;14.63;;;;;;;2.78;91.43;99381.31;5020227;28;20057;-55
2021/12/17 03:36:45;;;;;;;27.00;15.85;;;;;;;2.90;91.40;99380.09;5021459;28;20041;-56
2021/12/17 03:39:12;;;;;;;29.23;16.00;;;;;;;2.98;91.05;99385.53;5029906;28;20092;-56
2021/12/17 03:41:40;;;;;;;27.92;16.00;;;;;;;3.03;90.59;99387.75;5018580;28;20053;-57
2021/12/17 03:44:09;;;;;;;30.33;16.13;;;;;;;3.14;90.59;99385.81;5018028;28;20132;-56
2021/12/17 03:47:05;;;;;;;23.25;13.80;;;;;;;3.25;90.15;99385.59;5004812;28;20405;-57
2021/12/17 03:49:49;;;;;;;28.35;14.00;;;;;;;3.22;89.76;99393.94;5027609;28;20596;-58
2021/12/17 03:52:16;;;;;;;26.80;14.90;;;;;;;3.26;89.76;99381.91;5020918;28;20069;-58
2021/12/17 03:54:46;;;;;;;22.13;13.15;;;;;;;3.28;89.75;99389.78;5020130;28;20057;-58
2021/12/17 03:57:18;;;;;;;27.70;14.93;;;;;;;3.28;89.37;99392.47;5018831;28;20041;-58
2021/12/17 03:59:48;;;;;;;24.85;13.65;;;;;;;3.25;89.25;99389.09;5015690;28;20557;-58
2021/12/17 04:02:19;;;;;;;23.23;14.25;;;;;;;3.22;89.47;99389.44;5014415;28;20643;-58
2021/12/17 04:04:45;;;;;;;24.75;13.25;;;;;;;3.23;89.69;99380.41;5022548;28;20050;-58
2021/12/17 04:07:33;;;;;;;25.75;13.82;;;;;;;3.24;89.63;99390.09;5018952;28;20080;-56
2021/12/17 04:10:20;;;;;;;25.23;14.70;;;;;;;3.19;90.07;99386.19;5030121;28;20487;-56
2021/12/17 04:13:13;;;;;;;;;;;;;;;3.19;90.01;99392.41;5026745;28;20137;-58
2021/12/17 04:15:41;;;;;;;26.83;14.93;;;;;;;3.21;90.11;99397.63;5028462;28;19921;-58
2021/12/17 04:18:10;;;;;;;28.08;15.13;;;;;;;3.24;89.89;99394.59;5029201;28;20128;-56
2021/12/17 04:20:37;;;;;;;25.88;14.52;;;;;;;3.23;90.06;99388.44;5021489;28;20048;-58
2021/12/17 04:23:04;;;;;;;27.50;16.05;;;;;;;3.20;90.36;99382.50;5023127;28;20056;-58
2021/12/17 04:25:31;;;;;;;23.25;15.13;;;;;;;3.21;89.83;99378.88;5007916;28;20522;-56
2021/12/17 04:27:58;;;;;;;30.00;14.52;;;;;;;3.20;90.12;99380.69;5015430;28;20065;-56
2021/12/17 04:30:28;;;;;;;25.25;14.05;;;;;;;3.17;90.12;99385.53;5024842;28;20053;-55
2021/12/17 04:32:56;;;;;;;24.00;14.50;;;;;;;3.17;90.19;99382.84;5030226;28;20075;-55
2021/12/17 04:35:24;;;;;;;22.38;14.02;;;;;;;3.19;89.66;99391.56;5022140;28;20065;-56
2021/12/17 04:37:52;;;;;;;23.27;13.35;;;;;;;3.17;90.04;99385.53;5020675;28;20607;-57
2021/12/17 04:40:22;;;;;;;22.25;15.40;;;;;;;3.12;90.17;99383.31;5024597;28;20141;-57
2021/12/17 04:45:44;;;;;;;22.45;12.77;;;;;;;3.27;90.37;99377.41;5021282;28;20045;-55
2021/12/17 04:59:23;;;;;;;20.40;14.05;;;;;;;3.39;89.08;99349.38;5024091;28;20451;-57
2021/12/17 05:01:51;;;;;;;22.27;12.80;;;;;;;3.40;88.88;99367.13;5029081;28;20584;-57
2021/12/17 05:04:19;;;;;;;21.45;12.73;;;;;;;3.40;89.35;99368.97;5031039;28;20106;-58
2021/12/17 05:06:47;;;;;;;21.52;12.57;;;;;;;3.38;89.27;99356.56;5028799;28;20045;-57
2021/12/17 05:09:28;;;;;;;21.42;13.18;;;;;;;3.41;89.86;99349.22;5021306;28;20141;-58
2021/12/17 05:20:01;;;;;;;17.90;11.02;;;;;;;3.52;88.62;99359.69;5027553;28;20034;-57
2021/12/17 05:22:29;;;;;;;18.55;11.32;;;;;;;3.42;88.84;99356.28;5034532;28;20056;-58
2021/12/17 05:24:56;;;;;;;19.33;11.55;;;;;;;3.46;88.88;99363.81;5028468;28;20783;-58
2021/12/17 05:27:23;;;;;;;17.40;11.05;;;;;;;3.48;89.13;99361.84;5030277;28;20046;-57
2021/12/17 05:29:56;;;;;;;20.20;12.40;;;;;;;3.49;88.96;99366.19;5018906;28;20501;-58
2021/12/17 05:32:23;;;;;;;18.33;10.90;;;;;;;3.44;88.52;99359.63;5014216;28;20042;-58
2021/12/17 05:34:55;;;;;;;17.48;10.75;;;;;;;3.44;88.38;99355.13;5038660;28;20037;-59
2021/12/17 05:37:22;;;;;;;18.35;12.30;;;;;;;3.39;89.22;99360.06;5019846;28;20160;-58
2021/12/17 05:39:49;;;;;;;20.00;11.82;;;;;;;3.40;89.42;99355.56;5019962;28;20073;-58
2021/12/17 05:42:16;;;;;;;23.77;12.27;;;;;;;3.41;89.24;99350.06;5027129;28;20055;-56
2021/12/17 05:44:56;;;;;;;19.08;11.77;;;;;;;3.40;89.11;99347.53;5021076;28;20145;-58
2021/12/17 05:47:23;;;;;;;20.60;12.70;;;;;;;3.43;89.60;99339.19;5023007;28;20119;-59
2021/12/17 05:49:50;;;;;;;17.00;11.00;;;;;;;3.36;88.60;99342.50;5041177;28;20153;-58
2021/12/17 05:52:16;;;;;;;17.65;11.80;;;;;;;3.32;89.80;99346.47;5023857;28;20473;-58
2021/12/17 05:54:43;;;;;;;20.88;12.93;;;;;;;3.34;89.22;99352.53;5024341;28;20046;-58
2021/12/17 05:57:10;;;;;;;20.40;13.13;;;;;;;3.31;89.17;99350.16;5024272;28;20501;-59
2021/12/17 05:59:40;;;;;;;20.00;12.80;;;;;;;3.40;88.98;99348.41;5025672;28;20083;-60
2021/12/17 06:02:11;;;;;;;23.02;12.02;;;;;;;3.42;89.05;99338.34;5022745;28;20124;-61
2021/12/17 06:04:42;;;;;;;17.92;12.05;;;;;;;3.10;89.65;99334.44;5028012;28;20771;-60
2021/12/17 06:07:09;;;;;;;24.35;14.85;;;;;;;3.09;90.17;99346.13;5021927;28;20096;-61
2021/12/17 06:09:39;;;;;;;23.30;12.65;;;;;;;3.12;90.03;99340.47;5026030;28;20045;-60
2021/12/17 06:12:11;;;;;;;14.48;9.27;;;;;;;3.15;88.94;99340.16;5025829;28;20410;-60
2021/12/17 06:14:38;;;;;;;15.43;9.70;;;;;;;3.14;88.46;99343.84;5025315;28;20070;-61
2021/12/17 06:17:05;;;;;;;14.88;9.27;;;;;;;3.11;88.66;99333.44;5012087;28;20056;-60
2021/12/17 06:19:43;;;;;;;14.07;8.75;;;;;;;3.07;88.11;99332.91;5024699;28;20095;-60
2021/12/17 06:22:11;;;;;;;14.82;7.40;;;;;;;3.07;88.13;99329.41;5020660;28;20049;-60
2021/12/17 06:24:45;;;;;;;10.68;6.03;;;;;;;3.07;87.16;99337.41;5020734;28;20136;-60
2021/12/17 06:27:18;;;;;;;12.70;6.85;;;;;;;3.14;86.95;99343.00;5016557;28;20044;-60
2021/12/17 06:29:46;;;;;;;12.20;6.97;;;;;;;3.23;86.92;99352.78;5019698;28;20630;-60
2021/12/17 06:32:16;;;;;;;13.23;7.32;;;;;;;3.32;86.28;99345.66;5022552;28;20041;-59
2021/12/17 06:34:42;;;;;;;13.55;7.20;;;;;;;3.34;85.93;99357.88;5035295;28;20518;-60
2021/12/17 06:37:09;;;;;;;10.93;7.03;;;;;;;3.34;86.20;99360.56;5008230;28;20072;-60
2021/12/17 06:39:37;;;;;;;11.05;7.20;;;;;;;3.43;85.55;99376.69;5022409;28;20682;-60
2021/12/17 06:42:04;;;;;;;11.25;7.00;;;;;;;3.46;85.33;99373.72;5001573;28;20088;-60
2021/12/17 06:44:32;;;;;;;14.80;9.48;;;;;;;3.40;85.92;99377.00;5022868;28;20164;-60
2021/12/17 06:47:08;;;;;;;13.85;8.55;;;;;;;3.33;86.95;99376.78;5016057;28;20041;-60
2021/12/17 07:08:18;;;;;;;18.38;10.93;;;;;;;3.04;88.25;99392.09;5025302;28;20068;-61
2021/12/17 07:10:53;;;;;;;20.55;11.38;;;;;;;3.07;88.29;99393.63;5006033;28;20130;-60
2021/12/17 07:21:56;;;;;;;16.13;9.98;;;;;;;3.19;86.97;99396.91;5008242;28;20433;-61
2021/12/17 07:33:02;;;;;;;16.85;10.23;;;;;;;3.15;86.77;99399.06;5015327;28;20056;-60
2021/12/17 07:35:46;;;;;;;15.13;9.98;;;;;;;3.21;86.43;99413.66;5002974;28;20057;-60
2021/12/17 07:41:13;;;;;;;17.85;10.68;;;;;;;3.42;86.40;99421.38;5002173;28;20034;-60
2021/12/17 07:43:52;;;;;;;16.17;10.30;;;;;;;3.27;86.18;99412.22;5022196;28;20060;-61
2021/12/17 07:46:21;;;;;;;16.67;9.60;;;;;;;3.30;86.21;99415.41;5020768;28;20149;-61
2021/12/17 07:48:48;;;;;;;17.73;10.82;;;;;;;3.37;86.37;99421.00;5020218;28;20037;-61
2021/12/17 07:51:16;;;;;;;15.70;10.18;;;;;;;3.36;85.91;99422.00;5011664;28;20161;-59
2021/12/17 07:54:03;;;;;;;18.27;9.55;;;;;;;3.37;86.29;99424.53;5019666;28;20053;-61
2021/12/17 07:56:31;;;;;;;18.27;10.38;;;;;;;3.41;85.61;99419.69;5026253;28;20052;-61
2021/12/17 07:59:05;;;;;;;15.88;9.60;;;;;;;3.45;85.84;99421.06;5015220;28;20046;-61
2021/12/17 08:01:32;;;;;;;15.38;9.90;;;;;;;3.53;85.63;99416.78;5018620;28;20041;-61
2021/12/17 08:03:59;;;;;;;14.55;9.20;;;;;;;3.63;84.44;99418.38;5035133;28;20045;-62
2021/12/17 08:06:36;;;;;;;14.23;9.05;;;;;;;3.57;84.06;99416.28;5016612;28;20444;-61
2021/12/17 08:09:11;;;;;;;13.38;8.50;;;;;;;3.64;83.42;99414.69;5022087;28;20073;-62
2021/12/17 08:11:40;;;;;;;13.85;8.30;;;;;;;3.63;83.08;99420.19;5022618;28;20045;-60
2021/12/17 08:14:15;;;;;;;11.82;7.40;;;;;;;3.53;83.93;99417.59;5016103;28;20614;-61
2021/12/17 08:16:57;;;;;;;27.77;21.85;;;;;;;3.50;83.54;99420.59;5016176;28;20621;-60
2021/12/17 08:25:26;;;;;;;12.82;7.13;;;;;;;3.29;82.95;99420.94;5019423;28;20052;-61
2021/12/17 08:28:04;;;;;;;12.40;7.45;;;;;;;3.25;83.42;99418.53;5010897;28;20405;-61
2021/12/17 08:30:39;;;;;;;12.77;8.32;;;;;;;3.24;82.85;99418.69;5018896;28;20132;-59
2021/12/17 08:33:18;;;;;;;10.07;6.50;;;;;;;3.20;82.67;99426.22;5016356;28;20137;-59
2021/12/17 08:35:46;;;;;;;12.43;6.55;;;;;;;3.18;82.93;99424.69;5025281;28;20138;-60
2021/12/17 08:38:20;;;;;;;10.65;6.55;;;;;;;3.17;83.05;99431.03;5016728;28;20053;-60
2021/12/17 08:40:49;;;;;;;14.13;8.50;;;;;;;3.14;83.07;99426.84;5022110;28;20045;-60
2021/12/17 08:43:16;;;;;;;11.45;6.75;;;;;;;2.93;83.90;99435.13;5012531;28;20046;-59
2021/12/17 08:45:48;;;;;;;12.95;7.47;;;;;;;2.81;84.63;99430.03;5020475;28;20040;-60
2021/12/17 08:48:17;;;;;;;13.93;8.30;;;;;;;2.77;85.09;99434.00;5029975;28;20053;-60
2021/12/17 08:50:54;;;;;;;13.73;7.32;;;;;;;2.76;84.93;99428.78;5020418;28;20046;-61
2021/12/17 08:53:21;;;;;;;13.82;7.45;;;;;;;2.65;85.32;99432.50;5012664;28;20046;-60
2021/12/17 08:55:48;;;;;;;18.90;11.73;;;;;;;2.65;85.63;99438.69;5023802;28;20067;-61
2021/12/17 08:58:14;;;;;;;16.65;11.23;;;;;;;2.65;86.34;99436.00;5014920;28;20049;-61
2021/12/17 09:00:46;;;;;;;16.45;11.95;;;;;;;2.76;85.67;99436.81;5016741;28;20045;-60
2021/12/17 09:03:21;;;;;;;27.50;17.10;;;;;;;2.83;84.67;99436.03;5028680;28;20052;-61
2021/12/17 09:06:02;;;;;;;17.15;11.15;;;;;;;2.94;84.53;99432.31;5029040;28;20792;-61
2021/12/17 09:08:36;;;;;;;17.17;10.32;;;;;;;3.12;84.05;99436.84;5016317;28;20243;-61
2021/12/17 09:11:04;;;;;;;15.32;10.35;;;;;;;3.27;82.91;99433.63;5028871;28;20048;-59
2021/12/17 09:13:59;;;;;;;20.45;13.63;;;;;;;3.32;82.19;99434.84;5025400;28;20046;-61
2021/12/17 09:16:35;;;;;;;11.68;7.00;;;;;;;3.38;81.95;99434.25;5019617;28;20077;-61
2021/12/17 09:19:03;;;;;;;15.73;7.18;;;;;;;3.49;81.46;99441.19;5020960;28;20054;-60
2021/12/17 09:21:38;;;;;;;11.60;6.95;;;;;;;3.51;81.27;99438.38;5024641;28;20157;-60
2021/12/17 09:24:11;;;;;;;24.58;14.30;;;;;;;3.62;81.58;99429.25;5016331;28;20076;-59
2021/12/17 09:26:58;;;;;;;13.40;7.53;;;;;;;3.59;81.08;99438.44;5018334;28;20226;-61
2021/12/17 09:29:32;;;;;;;14.30;9.50;;;;;;;3.66;81.15;99437.78;5024341;28;20041;-60
2021/12/17 09:31:59;;;;;;;11.07;7.97;;;;;;;3.63;80.88;99430.91;5026035;28;20048;-61
2021/12/17 09:34:25;;;;;;;11.75;7.20;;;;;;;3.72;80.68;99429.97;5019667;28;20044;-61
2021/12/17 09:36:52;;;;;;;9.98;6.15;;;;;;;3.75;80.23;99426.97;5024499;28;20045;-60
2021/12/17 09:39:19;;;;;;;10.25;5.93;;;;;;;3.78;80.50;99425.81;5024148;28;20381;-59
2021/12/17 09:41:50;;;;;;;12.45;6.35;;;;;;;3.82;80.20;99426.34;5025664;28;20045;-61
2021/12/17 09:44:18;;;;;;;9.50;5.78;;;;;;;3.89;80.65;99427.41;5022219;28;20883;-62
2021/12/17 09:46:46;;;;;;;11.40;6.18;;;;;;;3.89;79.99;99427.41;5019334;28;20056;-60
2021/12/17 09:49:18;;;;;;;8.75;5.18;;;;;;;3.84;79.39;99432.41;5028603;28;20106;-60
2021/12/17 09:51:47;;;;;;;10.00;6.00;;;;;;;3.95;78.92;99429.47;5025606;28;20521;-61
2021/12/17 09:54:14;;;;;;;10.63;5.80;;;;;;;3.97;78.40;99437.31;5021780;28;20873;-59
2021/12/17 09:56:41;;;;;;;11.45;6.93;;;;;;;3.98;78.64;99426.44;5036821;28;20053;-59
2021/12/17 09:59:08;;;;;;;10.20;6.25;;;;;;;4.15;78.72;99421.19;5017425;28;20041;-60
2021/12/17 10:01:37;;;;;;;10.15;6.45;;;;;;;4.14;79.06;99430.25;5015907;28;20083;-58
2021/12/17 10:04:13;;;;;;;11.27;6.57;;;;;;;4.11;78.77;99431.41;5024034;28;20046;-61
2021/12/17 10:06:40;;;;;;;11.90;6.20;;;;;;;4.21;78.72;99420.56;5016140;28;20053;-59
2021/12/17 10:09:07;;;;;;;10.85;6.50;;;;;;;4.18;78.67;99420.88;5023008;28;20056;-60
2021/12/17 10:11:33;;;;;;;11.30;7.03;;;;;;;4.27;78.35;99411.88;5028280;28;20100;-60
2021/12/17 10:14:17;;;;;;;12.05;7.20;;;;;;;4.31;78.19;99423.09;5021386;28;20046;-61
2021/12/17 10:16:44;;;;;;;13.23;7.07;;;;;;;4.25;78.09;99418.41;5016987;28;20117;-61
2021/12/17 10:19:11;;;;;;;13.88;6.90;;;;;;;4.27;78.09;99419.06;5033950;28;20099;-60
2021/12/17 10:21:46;;;;;;;14.35;6.55;;;;;;;4.31;77.38;99415.06;5019986;28;20045;-60
2021/12/17 10:24:24;;;;;;;9.90;6.28;;;;;;;4.31;77.59;99416.91;5023033;28;20045;-60
2021/12/17 10:26:51;;;;;;;9.73;5.43;;;;;;;4.39;77.42;99409.72;5015958;28;20521;-60
2021/12/17 10:29:21;;;;;;;10.05;6.22;;;;;;;4.43;77.22;99404.91;5017169;28;20046;-60
2021/12/17 10:31:57;;;;;;;10.43;6.22;;;;;;;4.49;76.72;99408.78;5015441;28;20045;-61
2021/12/17 10:34:25;;;;;;;9.57;5.88;;;;;;;4.50;76.82;99410.47;5022612;28;20045;-60
2021/12/17 10:36:51;;;;;;;9.27;5.70;;;;;;;4.48;76.79;99410.63;5026347;28;20555;-61
2021/12/17 10:39:31;;;;;;;12.32;6.60;;;;;;;4.60;76.46;99421.06;5021051;28;20045;-61
2021/12/17 10:41:58;;;;;;;10.73;6.65;;;;;;;4.54;76.80;99420.69;5017671;28;20080;-61
2021/12/17 10:44:27;;;;;;;14.40;6.63;;;;;;;4.45;76.68;99418.97;5018301;28;20048;-61
2021/12/17 10:47:30;;;;;;;10.98;6.53;;;;;;;4.54;76.52;99418.00;5025181;28;20049;-60
2021/12/17 10:49:58;;;;;;;13.85;7.55;;;;;;;4.65;76.71;99421.41;5009545;28;20074;-60
2021/12/17 10:52:35;;;;;;;11.25;7.05;;;;;;;4.72;77.03;99433.16;5016272;28;20049;-60
2021/12/17 10:55:15;;;;;;;11.55;6.70;;;;;;;4.95;76.09;99421.81;5024712;28;20721;-61
2021/12/17 10:57:45;;;;;;;11.75;7.57;;;;;;;5.02;76.06;99425.50;5033106;28;20049;-59
2021/12/17 11:00:12;;;;;;;11.80;7.00;;;;;;;5.21;75.38;99423.53;5011459;28;20046;-60
2021/12/17 11:02:48;;;;;;;12.38;7.97;;;;;;;5.39;75.36;99426.09;5028824;28;20049;-61
2021/12/17 11:05:15;;;;;;;11.82;7.97;;;;;;;5.70;73.84;99424.53;5023974;28;20052;-61
2021/12/17 11:07:47;;;;;;;11.93;7.57;;;;;;;5.43;75.07;99418.53;5014011;28;20505;-59
2021/12/17 11:10:15;;;;;;;13.77;8.00;;;;;;;5.63;74.59;99418.19;5021389;28;20045;-60
2021/12/17 11:12:45;;;;;;;10.38;7.40;;;;;;;5.77;74.13;99413.94;5028330;28;20041;-60
2021/12/17 11:15:24;;;;;;;15.25;8.20;;;;;;;5.27;76.05;99428.22;5018332;28;20053;-61
2021/12/17 11:17:58;;;;;;;11.90;7.75;;;;;;;5.13;75.89;99434.28;5018427;28;20057;-61
2021/12/17 11:20:30;;;;;;;13.88;8.77;;;;;;;4.95;76.75;99432.56;5037966;28;20724;-61
2021/12/17 11:23:03;;;;;;;11.95;7.82;;;;;;;5.18;75.51;99424.72;5018655;28;20042;-62
2021/12/17 11:25:31;;;;;;;12.45;8.23;;;;;;;5.34;74.49;99415.81;5017426;28;20042;-59
2021/12/17 11:27:58;;;;;;;9.50;6.50;;;;;;;5.27;74.84;99405.94;5027416;28;20046;-61
2021/12/17 11:30:28;;;;;;;13.23;7.60;;;;;;;5.26;74.51;99409.59;5035092;28;20056;-61
2021/12/17 11:32:56;;;;;;;12.48;7.90;;;;;;;4.96;75.80;99404.72;5013809;28;20053;-60
2021/12/17 11:35:26;;;;;;;12.18;7.53;;;;;;;4.92;76.02;99404.22;5029688;28;20051;-61
2021/12/17 11:38:05;;;;;;;12.63;7.70;;;;;;;4.90;76.19;99403.53;5036158;28;20043;-60
2021/12/17 11:40:40;;;;;;;13.18;8.13;;;;;;;4.80;76.77;99395.59;5021435;28;20057;-61
2021/12/17 11:43:39;;;;;;;12.48;7.50;;;;;;;4.73;76.45;99401.81;5016591;28;20045;-61
2021/12/17 11:46:12;;;;;;;12.02;8.18;;;;;;;4.68;77.18;99389.72;5019901;28;20048;-60
2021/12/17 11:48:47;;;;;;;17.05;9.27;;;;;;;4.65;77.10;99398.09;5014320;28;20533;-60
2021/12/17 11:51:17;;;;;;;12.00;8.43;;;;;;;4.69;76.86;99404.81;5017545;28;20045;-61
2021/12/17 11:53:54;;;;;;;12.23;7.95;;;;;;;4.81;76.94;99408.03;5022972;28;20049;-61
2021/12/17 11:56:52;;;;;;;11.90;7.35;;;;;;;4.83;76.86;99394.44;5018900;28;20046;-61
2021/12/17 11:59:25;;;;;;;11.27;6.82;;;;;;;4.99;76.41;99401.69;5016600;28;20705;-61
2021/12/17 12:02:16;;;;;;;10.73;6.80;;;;;;;4.97;76.42;99401.00;5018837;28;20875;-62
2021/12/17 12:04:46;;;;;;;10.15;6.65;;;;;;;4.94;76.42;99399.50;5014458;28;20046;-61
2021/12/17 12:07:25;;;;;;;11.95;6.53;;;;;;;4.93;76.13;99403.19;5024536;28;20940;-60
2021/12/17 12:10:21;;;;;;;12.00;5.82;;;;;;;5.12;75.75;99393.13;5015679;28;20072;-61
2021/12/17 12:12:49;;;;;;;12.48;6.65;;;;;;;5.06;76.00;99389.28;5010324;28;20504;-61
2021/12/17 12:15:23;;;;;;;10.90;6.18;;;;;;;5.05;75.56;99382.22;5012136;28;20045;-61
2021/12/17 12:18:02;;;;;;;10.70;6.75;;;;;;;5.16;75.99;99380.25;5016311;28;20052;-60
2021/12/17 12:20:38;;;;;;;11.25;6.20;;;;;;;5.16;75.74;99373.00;5004713;28;20095;-62
2021/12/17 12:23:16;;;;;;;11.82;6.88;;;;;;;5.21;75.70;99377.88;5008612;28;20045;-62
2021/12/17 12:26:04;;;;;;;11.68;6.75;;;;;;;5.24;75.51;99374.03;5016190;28;20041;-62
2021/12/17 12:28:49;;;;;;;11.40;6.65;;;;;;;5.36;75.55;99379.88;5021922;28;20037;-61
2021/12/17 12:31:36;;;;;;;10.98;6.75;;;;;;;5.32;76.11;99384.78;5016669;28;20046;-62
2021/12/17 12:34:06;;;;;;;12.48;7.00;;;;;;;5.42;75.69;99384.59;5018007;28;20551;-61
2021/12/17 12:37:08;;;;;;;12.48;6.93;;;;;;;5.83;74.21;99383.72;5018551;28;20052;-61
2021/12/17 12:39:42;;;;;;;11.65;7.40;;;;;;;5.94;74.13;99382.50;5013870;28;20112;-60
2021/12/17 12:42:19;;;;;;;12.15;7.35;;;;;;;5.82;74.73;99377.47;5021337;28;20037;-61
2021/12/17 12:44:45;;;;;;;12.50;7.50;;;;;;;5.83;74.78;99367.59;5017332;28;20730;-62
2021/12/17 12:47:13;;;;;;;11.93;7.43;;;;;;;5.88;74.74;99377.81;5025301;28;20045;-60
2021/12/17 12:49:49;;;;;;;12.25;7.18;;;;;;;5.99;73.59;99372.91;5015748;28;20140;-61
2021/12/17 12:52:15;;;;;;;12.88;7.43;;;;;;;5.76;74.56;99363.91;5016395;28;20038;-61
2021/12/17 12:54:47;;;;;;;13.05;7.68;;;;;;;5.44;75.97;99377.19;5015832;28;20072;-58
2021/12/17 12:57:42;;;;;;;13.20;8.10;;;;;;;5.25;76.60;99373.84;5013041;28;20052;-60
2021/12/17 13:00:12;;;;;;;14.73;7.90;;;;;;;5.19;76.79;99355.72;5017858;28;20061;-59
2021/12/17 13:02:40;;;;;;;15.85;7.93;;;;;;;5.18;77.21;99370.16;5015524;28;20041;-60
2021/12/17 13:05:09;;;;;;;11.23;6.40;;;;;;;5.24;76.69;99374.03;5022095;28;20056;-59
2021/12/17 13:07:39;;;;;;;10.27;6.38;;;;;;;5.32;76.64;99368.66;5016850;28;20049;-60
2021/12/17 13:10:18;;;;;;;13.02;7.05;;;;;;;5.16;77.26;99372.19;5015050;28;20044;-61
2021/12/17 13:13:04;;;;;;;12.55;7.50;;;;;;;5.12;77.81;99374.34;5018100;28;20053;-61
2021/12/17 13:15:42;;;;;;;11.27;6.95;;;;;;;5.33;76.96;99362.25;5030326;28;20046;-61
2021/12/17 13:21:17;;;;;;;15.02;7.35;;;;;;;5.93;75.19;99365.53;5013986;28;20443;-60
2021/12/17 13:23:49;;;;;;;12.07;7.05;;;;;;;5.84;75.94;99380.84;5014729;28;20052;-61
2021/12/17 13:26:19;;;;;;;12.50;7.55;;;;;;;6.02;75.06;99381.63;5019288;28;20052;-62
2021/12/17 13:28:50;;;;;;;13.05;7.72;;;;;;;6.15;74.66;99389.22;5012681;28;20050;-60
2021/12/17 13:31:30;;;;;;;11.90;7.65;;;;;;;6.07;74.24;99401.66;5013570;28;20042;-61
2021/12/17 13:33:56;;;;;;;11.45;6.75;;;;;;;6.09;74.65;99388.88;5017921;28;20547;-60
2021/12/17 13:36:24;;;;;;;12.27;7.43;;;;;;;5.75;75.70;99387.22;5018598;28;20068;-61
2021/12/17 13:38:57;;;;;;;13.57;8.73;;;;;;;5.62;76.44;99392.28;5012482;28;20472;-59
2021/12/17 13:41:44;;;;;;;13.70;8.20;;;;;;;5.83;76.32;99373.78;5024176;28;20067;-61
2021/12/17 13:44:33;;;;;;;12.85;8.80;;;;;;;5.72;76.55;99363.41;5026386;28;20049;-61
2021/12/17 13:47:10;;;;;;;15.27;9.00;;;;;;;5.80;76.24;99375.97;5019182;28;20053;-60
2021/12/17 13:49:40;;;;;;;13.57;8.77;;;;;;;5.92;76.12;99373.75;5016539;28;20052;-60
2021/12/17 13:52:07;;;;;;;15.00;9.50;;;;;;;5.65;77.07;99368.63;5009039;28;20049;-61
2021/12/17 13:54:34;;;;;;;13.10;8.48;;;;;;;5.63;76.91;99348.31;5008513;28;20116;-60
2021/12/17 13:57:03;;;;;;;15.65;9.68;;;;;;;5.69;76.92;99359.22;5008622;28;20041;-62
2021/12/17 13:59:35;;;;;;;14.25;9.35;;;;;;;5.44;77.48;99361.09;5017241;28;20045;-61
2021/12/17 14:02:19;;;;;;;15.90;10.15;;;;;;;5.47;77.67;99358.91;5033601;28;20041;-61
2021/12/17 14:05:06;;;;;;;18.13;12.02;;;;;;;5.54;77.32;99352.84;5020886;28;20038;-60
2021/12/17 14:07:36;;;;;;;14.15;9.52;;;;;;;5.63;76.81;99354.50;5007064;28;20038;-61
2021/12/17 14:10:18;;;;;;;13.73;9.30;;;;;;;5.30;77.71;99366.13;5008600;28;20045;-60
2021/12/17 14:12:44;;;;;;;;;;;;;;;5.19;78.30;99369.13;5020545;28;20037;-60
2021/12/17 14:15:34;;;;;;;16.00;9.13;;;;;;;5.13;78.07;99380.56;5007485;28;20340;-60
2021/12/17 14:18:04;;;;;;;15.98;9.05;;;;;;;5.05;78.89;99381.41;5013871;28;20065;-61
2021/12/17 14:20:46;;;;;;;14.57;9.48;;;;;;;5.22;77.86;99374.19;5021933;28;20048;-60
2021/12/17 14:23:18;;;;;;;14.15;8.18;;;;;;;5.42;77.29;99371.16;5022402;28;20048;-61
2021/12/17 14:25:55;;;;;;;13.07;8.57;;;;;;;4.94;78.90;99379.88;5023919;28;20049;-61
2021/12/17 14:28:30;;;;;;;13.93;9.30;;;;;;;4.75;79.92;99386.38;5016295;28;20053;-60
2021/12/17 14:31:14;;;;;;;14.40;9.30;;;;;;;4.68;80.17;99389.72;5019318;28;20428;-61
2021/12/17 14:33:54;;;;;;;15.57;9.75;;;;;;;4.58;80.70;99389.03;5006411;28;20096;-60
2021/12/17 14:36:39;;;;;;;14.90;9.70;;;;;;;4.64;80.20;99398.28;5015559;28;20045;-61
2021/12/17 14:39:13;;;;;;;15.15;9.93;;;;;;;4.67;80.06;99398.78;5017104;28;20046;-59
2021/12/17 14:41:58;;;;;;;13.88;9.63;;;;;;;4.57;80.30;99400.75;5016939;28;20056;-60